sensor_id;sensor_type;location;lat;lon;timestamp;pressure;altitude;pressure_sealevel;temperature;humidity
46506;BME280;32220;49.808;9.968;2022-10-16T08:45:43;98982.81;;;17.67;100.00
46506;BME280;32220;49.808;9.968;2022-10-16T08:48:20;98984.13;;;18.20;100.00
46506;BME280;32220;49.808;9.968;2022-10-16T08:50:52;98990.59;;;18.85;100.00
46506;BME280;32220;49.808;9.968;2022-10-16T08:53:26;98986.56;;;19.46;100.00
46506;BME280;32220;49.808;9.968;2022-10-16T08:55:55;98980.69;;;20.05;98.55
46506;BME280;32220;49.808;9.968;2022-10-16T08:58:27;98990.63;;;20.58;94.74
46506;BME280;32220;49.808;9.968;2022-10-16T09:01:00;98985.25;;;20.75;91.59
46506;BME280;32220;49.808;9.968;2022-10-16T09:03:38;98991.06;;;20.89;89.79
46506;BME280;32220;49.808;9.968;2022-10-16T09:06:29;99000.72;;;20.99;88.52
46506;BME280;32220;49.808;9.968;2022-10-16T09:09:10;99000.78;;;21.15;87.29
46506;BME280;32220;49.808;9.968;2022-10-16T09:11:46;98999.94;;;21.33;86.41
46506;BME280;32220;49.808;9.968;2022-10-16T09:14:38;98998.25;;;21.40;85.70
46506;BME280;32220;49.808;9.968;2022-10-16T09:17:22;99014.19;;;21.51;84.10
46506;BME280;32220;49.808;9.968;2022-10-16T09:20:12;99021.56;;;21.49;83.13
46506;BME280;32220;49.808;9.968;2022-10-16T09:22:41;99001.16;;;21.38;83.53
46506;BME280;32220;49.808;9.968;2022-10-16T09:25:12;99010.38;;;21.36;82.65
46506;BME280;32220;49.808;9.968;2022-10-16T09:27:40;99028.31;;;21.53;81.92
46506;BME280;32220;49.808;9.968;2022-10-16T09:30:13;99030.94;;;21.71;80.75
46506;BME280;32220;49.808;9.968;2022-10-16T09:32:45;99025.41;;;21.80;80.59
46506;BME280;32220;49.808;9.968;2022-10-16T09:35:16;99034.69;;;21.86;80.50
46506;BME280;32220;49.808;9.968;2022-10-16T09:37:47;99032.16;;;21.84;79.92
46506;BME280;32220;49.808;9.968;2022-10-16T09:40:25;99034.50;;;21.79;79.62
46506;BME280;32220;49.808;9.968;2022-10-16T09:43:02;99007.09;;;21.50;80.52
46506;BME280;32220;49.808;9.968;2022-10-16T09:45:30;99032.28;;;21.41;80.58
46506;BME280;32220;49.808;9.968;2022-10-16T09:48:01;99032.06;;;21.26;81.30
46506;BME280;32220;49.808;9.968;2022-10-16T09:50:37;99036.91;;;21.23;81.53
46506;BME280;32220;49.808;9.968;2022-10-16T09:53:10;99042.63;;;21.20;82.03
46506;BME280;32220;49.808;9.968;2022-10-16T09:55:48;99014.19;;;20.99;81.82
46506;BME280;32220;49.808;9.968;2022-10-16T09:58:16;99051.38;;;21.22;82.30
46506;BME280;32220;49.808;9.968;2022-10-16T10:00:49;99053.06;;;21.23;82.37
46506;BME280;32220;49.808;9.968;2022-10-16T10:03:33;99055.66;;;21.14;81.39
46506;BME280;32220;49.808;9.968;2022-10-16T10:06:13;99039.88;;;20.94;81.46
46506;BME280;32220;49.808;9.968;2022-10-16T10:09:05;99063.50;;;21.00;82.43
46506;BME280;32220;49.808;9.968;2022-10-16T10:11:45;99063.50;;;21.00;82.65
46506;BME280;32220;49.808;9.968;2022-10-16T10:14:25;99066.69;;;21.03;82.54
46506;BME280;32220;49.808;9.968;2022-10-16T10:17:09;99068.38;;;21.04;82.43
46506;BME280;32220;49.808;9.968;2022-10-16T10:19:47;99061.41;;;20.94;82.42
46506;BME280;32220;49.808;9.968;2022-10-16T10:22:27;99081.16;;;21.02;82.91
46506;BME280;32220;49.808;9.968;2022-10-16T10:25:19;99075.41;;;20.97;83.06
46506;BME280;32220;49.808;9.968;2022-10-16T10:30:52;99101.13;;;20.74;83.57
46506;BME280;32220;49.808;9.968;2022-10-16T10:33:29;99101.25;;;20.55;83.88
46506;BME280;32220;49.808;9.968;2022-10-16T10:36:08;99125.75;;;20.34;84.18
46506;BME280;32220;49.808;9.968;2022-10-16T10:38:46;99137.75;;;20.12;84.56
46506;BME280;32220;49.808;9.968;2022-10-16T10:41:46;99100.91;;;19.95;85.23
46506;BME280;32220;49.808;9.968;2022-10-16T10:44:30;99112.69;;;19.84;85.34
46506;BME280;32220;49.808;9.968;2022-10-16T10:47:11;99103.09;;;19.82;85.50
46506;BME280;32220;49.808;9.968;2022-10-16T10:49:53;99106.69;;;20.00;85.32
46506;BME280;32220;49.808;9.968;2022-10-16T10:52:41;99102.13;;;20.28;85.13
46506;BME280;32220;49.808;9.968;2022-10-16T10:55:16;99089.34;;;20.57;84.72
46506;BME280;32220;49.808;9.968;2022-10-16T10:58:00;99084.53;;;21.04;84.23
46506;BME280;32220;49.808;9.968;2022-10-16T11:00:39;99086.50;;;21.98;83.59
46506;BME280;32220;49.808;9.968;2022-10-16T11:03:14;99083.00;;;23.28;80.42
46506;BME280;32220;49.808;9.968;2022-10-16T11:05:49;99095.47;;;24.09;76.78
46506;BME280;32220;49.808;9.968;2022-10-16T11:08:23;99096.28;;;25.02;74.21
46506;BME280;32220;49.808;9.968;2022-10-16T11:10:58;99082.31;;;25.95;71.69
46506;BME280;32220;49.808;9.968;2022-10-16T11:13:32;99097.31;;;26.99;68.02
46506;BME280;32220;49.808;9.968;2022-10-16T11:16:06;99097.63;;;27.95;64.55
46506;BME280;32220;49.808;9.968;2022-10-16T11:18:46;99118.59;;;29.82;60.37
46506;BME280;32220;49.808;9.968;2022-10-16T11:21:18;99131.31;;;30.85;55.62
46506;BME280;32220;49.808;9.968;2022-10-16T11:23:53;99142.16;;;32.77;49.86
46506;BME280;32220;49.808;9.968;2022-10-16T11:26:25;99165.03;;;34.71;44.82
46506;BME280;32220;49.808;9.968;2022-10-16T11:28:55;99167.53;;;36.30;41.51
46506;BME280;32220;49.808;9.968;2022-10-16T11:31:29;99155.06;;;37.47;39.54
46506;BME280;32220;49.808;9.968;2022-10-16T11:34:04;99184.78;;;38.93;35.53
46506;BME280;32220;49.808;9.968;2022-10-16T11:36:38;99181.06;;;39.75;34.16
46506;BME280;32220;49.808;9.968;2022-10-16T11:39:19;99177.22;;;40.86;30.89
46506;BME280;32220;49.808;9.968;2022-10-16T11:41:49;99177.38;;;41.83;31.01
46506;BME280;32220;49.808;9.968;2022-10-16T11:44:33;99185.00;;;42.30;29.37
46506;BME280;32220;49.808;9.968;2022-10-16T11:47:09;99173.56;;;42.79;29.38
46506;BME280;32220;49.808;9.968;2022-10-16T11:49:40;99182.47;;;42.81;28.26
46506;BME280;32220;49.808;9.968;2022-10-16T11:52:15;99173.47;;;42.42;29.03
46506;BME280;32220;49.808;9.968;2022-10-16T11:54:49;99168.53;;;42.34;29.20
46506;BME280;32220;49.808;9.968;2022-10-16T11:57:21;99165.16;;;42.37;28.02
46506;BME280;32220;49.808;9.968;2022-10-16T11:59:53;99176.88;;;43.24;27.22
46506;BME280;32220;49.808;9.968;2022-10-16T12:02:33;99133.41;;;43.74;26.07
46506;BME280;32220;49.808;9.968;2022-10-16T12:05:16;99175.28;;;44.48;25.45
46506;BME280;32220;49.808;9.968;2022-10-16T12:07:50;99170.88;;;45.10;25.21
46506;BME280;32220;49.808;9.968;2022-10-16T12:10:24;99166.59;;;45.62;24.46
46506;BME280;32220;49.808;9.968;2022-10-16T12:12:54;99166.00;;;45.96;23.41
46506;BME280;32220;49.808;9.968;2022-10-16T12:15:25;99163.03;;;46.32;23.28
46506;BME280;32220;49.808;9.968;2022-10-16T12:17:53;99156.53;;;46.63;23.03
46506;BME280;32220;49.808;9.968;2022-10-16T12:20:27;99154.84;;;46.44;23.28
46506;BME280;32220;49.808;9.968;2022-10-16T12:22:58;99138.84;;;44.80;24.58
46506;BME280;32220;49.808;9.968;2022-10-16T12:25:29;99129.53;;;43.38;26.21
46506;BME280;32220;49.808;9.968;2022-10-16T12:28:00;99111.41;;;41.59;27.76
46506;BME280;32220;49.808;9.968;2022-10-16T12:30:31;99103.41;;;39.85;29.52
46506;BME280;32220;49.808;9.968;2022-10-16T12:33:01;99105.69;;;38.50;30.71
46506;BME280;32220;49.808;9.968;2022-10-16T12:35:32;99097.63;;;37.49;32.36
46506;BME280;32220;49.808;9.968;2022-10-16T12:38:16;99075.06;;;36.06;34.08
46506;BME280;32220;49.808;9.968;2022-10-16T12:40:47;99078.41;;;35.19;35.58
46506;BME280;32220;49.808;9.968;2022-10-16T12:43:34;99067.19;;;34.35;37.04
46506;BME280;32220;49.808;9.968;2022-10-16T12:46:05;99074.44;;;33.78;37.27
46506;BME280;32220;49.808;9.968;2022-10-16T12:48:33;99069.41;;;33.51;38.74
46506;BME280;32220;49.808;9.968;2022-10-16T12:51:10;99074.91;;;33.63;38.20
46506;BME280;32220;49.808;9.968;2022-10-16T12:53:38;99054.94;;;33.21;39.01
46506;BME280;32220;49.808;9.968;2022-10-16T12:56:16;99063.13;;;32.68;39.68
46506;BME280;32220;49.808;9.968;2022-10-16T12:58:56;99069.94;;;33.07;39.37
46506;BME280;32220;49.808;9.968;2022-10-16T13:01:37;99063.09;;;33.63;39.08
46506;BME280;32220;49.808;9.968;2022-10-16T13:04:47;99064.84;;;33.22;39.76
46506;BME280;32220;49.808;9.968;2022-10-16T13:07:30;99065.22;;;32.54;39.77
46506;BME280;32220;49.808;9.968;2022-10-16T13:10:15;99012.25;;;31.32;41.37
46506;BME280;32220;49.808;9.968;2022-10-16T13:13:09;99052.59;;;30.87;43.17
46506;BME280;32220;49.808;9.968;2022-10-16T13:15:51;99041.94;;;30.41;44.25
46506;BME280;32220;49.808;9.968;2022-10-16T13:18:27;99045.69;;;29.95;45.52
46506;BME280;32220;49.808;9.968;2022-10-16T13:21:05;99046.19;;;30.30;45.44
46506;BME280;32220;49.808;9.968;2022-10-16T13:23:44;99049.81;;;31.68;43.93
46506;BME280;32220;49.808;9.968;2022-10-16T13:26:23;99067.28;;;31.49;42.80
46506;BME280;32220;49.808;9.968;2022-10-16T13:28:58;99071.47;;;32.91;41.78
46506;BME280;32220;49.808;9.968;2022-10-16T13:31:28;99089.13;;;33.48;39.65
46506;BME280;32220;49.808;9.968;2022-10-16T13:33:58;99083.41;;;32.67;40.43
46506;BME280;32220;49.808;9.968;2022-10-16T13:36:28;99073.56;;;31.74;42.11
46506;BME280;32220;49.808;9.968;2022-10-16T13:39:06;99068.47;;;31.03;43.48
46506;BME280;32220;49.808;9.968;2022-10-16T13:41:35;99066.56;;;30.41;43.66
46506;BME280;32220;49.808;9.968;2022-10-16T13:44:05;99035.88;;;29.75;45.28
46506;BME280;32220;49.808;9.968;2022-10-16T13:46:38;99059.88;;;29.46;46.05
46506;BME280;32220;49.808;9.968;2022-10-16T13:49:13;99047.91;;;29.08;47.20
46506;BME280;32220;49.808;9.968;2022-10-16T13:51:41;99042.22;;;28.76;48.17
46506;BME280;32220;49.808;9.968;2022-10-16T13:54:09;99052.22;;;28.43;47.87
46506;BME280;32220;49.808;9.968;2022-10-16T13:56:39;99034.03;;;28.02;49.46
46506;BME280;32220;49.808;9.968;2022-10-16T13:59:24;99056.78;;;27.88;50.40
46506;BME280;32220;49.808;9.968;2022-10-16T14:01:53;99054.31;;;27.59;49.15
46506;BME280;32220;49.808;9.968;2022-10-16T14:04:23;99060.44;;;27.39;49.97
46506;BME280;32220;49.808;9.968;2022-10-16T14:06:52;99058.16;;;27.15;50.90
46506;BME280;32220;49.808;9.968;2022-10-16T14:09:23;99021.41;;;26.76;51.34
46506;BME280;32220;49.808;9.968;2022-10-16T14:11:58;99063.31;;;26.89;51.88
46506;BME280;32220;49.808;9.968;2022-10-16T14:14:32;99059.44;;;26.76;52.66
46506;BME280;32220;49.808;9.968;2022-10-16T14:17:02;99052.09;;;26.70;53.07
46506;BME280;32220;49.808;9.968;2022-10-16T14:19:30;99052.84;;;26.64;53.91
46506;BME280;32220;49.808;9.968;2022-10-16T14:21:59;99042.75;;;26.58;54.62
46506;BME280;32220;49.808;9.968;2022-10-16T14:24:32;99042.88;;;26.50;55.80
46506;BME280;32220;49.808;9.968;2022-10-16T14:27:00;99047.84;;;26.46;55.98
46506;BME280;32220;49.808;9.968;2022-10-16T14:29:30;99051.63;;;26.45;55.00
46506;BME280;32220;49.808;9.968;2022-10-16T14:32:00;99049.47;;;26.41;55.73
46506;BME280;32220;49.808;9.968;2022-10-16T14:34:30;99051.84;;;26.29;56.76
46506;BME280;32220;49.808;9.968;2022-10-16T14:37:00;99038.31;;;26.00;57.11
46506;BME280;32220;49.808;9.968;2022-10-16T14:39:33;99061.88;;;25.99;57.52
46506;BME280;32220;49.808;9.968;2022-10-16T14:42:01;99047.97;;;25.73;57.79
46506;BME280;32220;49.808;9.968;2022-10-16T14:44:32;99006.72;;;25.33;58.69
46506;BME280;32220;49.808;9.968;2022-10-16T14:47:07;99061.72;;;25.57;59.00
46506;BME280;32220;49.808;9.968;2022-10-16T14:49:36;99033.34;;;25.30;59.38
46506;BME280;32220;49.808;9.968;2022-10-16T14:52:08;99056.38;;;25.34;59.40
46506;BME280;32220;49.808;9.968;2022-10-16T14:54:37;99039.50;;;25.09;59.61
46506;BME280;32220;49.808;9.968;2022-10-16T14:57:16;99034.38;;;24.91;59.99
46506;BME280;32220;49.808;9.968;2022-10-16T14:59:46;99041.94;;;24.73;60.50
46506;BME280;32220;49.808;9.968;2022-10-16T15:02:20;99060.97;;;24.65;60.90
46506;BME280;32220;49.808;9.968;2022-10-16T15:04:50;99042.44;;;24.31;60.51
46506;BME280;32220;49.808;9.968;2022-10-16T15:07:18;99070.34;;;24.31;61.35
46506;BME280;32220;49.808;9.968;2022-10-16T15:09:46;99033.84;;;23.88;61.41
46506;BME280;32220;49.808;9.968;2022-10-16T15:12:14;99071.66;;;24.05;62.06
46506;BME280;32220;49.808;9.968;2022-10-16T15:14:42;99069.50;;;23.92;62.43
46506;BME280;32220;49.808;9.968;2022-10-16T15:17:11;99061.94;;;23.79;62.99
46506;BME280;32220;49.808;9.968;2022-10-16T15:19:39;99058.94;;;23.66;63.17
46506;BME280;32220;49.808;9.968;2022-10-16T15:22:09;99052.91;;;23.40;63.33
46506;BME280;32220;49.808;9.968;2022-10-16T15:24:38;99054.28;;;23.27;64.06
46506;BME280;32220;49.808;9.968;2022-10-16T15:27:06;99066.78;;;23.28;64.69
46506;BME280;32220;49.808;9.968;2022-10-16T15:29:33;99064.78;;;23.22;64.56
46506;BME280;32220;49.808;9.968;2022-10-16T15:32:01;99056.31;;;23.17;64.54
46506;BME280;32220;49.808;9.968;2022-10-16T15:34:30;99068.84;;;23.10;65.46
46506;BME280;32220;49.808;9.968;2022-10-16T15:37:02;99075.94;;;23.03;65.84
46506;BME280;32220;49.808;9.968;2022-10-16T15:39:30;99073.25;;;22.95;65.41
46506;BME280;32220;49.808;9.968;2022-10-16T15:41:58;99074.56;;;22.91;65.94
46506;BME280;32220;49.808;9.968;2022-10-16T15:44:25;99075.94;;;22.79;66.11
46506;BME280;32220;49.808;9.968;2022-10-16T15:46:56;99072.16;;;22.64;66.68
46506;BME280;32220;49.808;9.968;2022-10-16T15:49:24;99057.97;;;22.45;67.37
46506;BME280;32220;49.808;9.968;2022-10-16T15:51:53;99066.06;;;22.37;67.38
46506;BME280;32220;49.808;9.968;2022-10-16T15:54:21;99058.47;;;22.33;67.77
46506;BME280;32220;49.808;9.968;2022-10-16T15:56:49;99035.66;;;22.19;68.93
46506;BME280;32220;49.808;9.968;2022-10-16T15:59:20;99038.69;;;22.16;68.87
46506;BME280;32220;49.808;9.968;2022-10-16T16:01:48;99062.66;;;22.19;69.26
46506;BME280;32220;49.808;9.968;2022-10-16T16:04:15;99066.19;;;22.11;69.01
46506;BME280;32220;49.808;9.968;2022-10-16T16:06:44;99032.84;;;21.86;69.63
46506;BME280;32220;49.808;9.968;2022-10-16T16:09:14;99058.72;;;22.05;70.29
46506;BME280;32220;49.808;9.968;2022-10-16T16:11:42;99060.56;;;22.05;70.35
46506;BME280;32220;49.808;9.968;2022-10-16T16:14:12;99017.47;;;21.79;70.74
46506;BME280;32220;49.808;9.968;2022-10-16T16:16:40;99057.81;;;21.97;70.73
46506;BME280;32220;49.808;9.968;2022-10-16T16:19:08;99058.16;;;21.94;71.06
46506;BME280;32220;49.808;9.968;2022-10-16T16:21:36;99051.53;;;21.80;70.76
46506;BME280;32220;49.808;9.968;2022-10-16T16:24:04;99060.13;;;21.75;70.59
46506;BME280;32220;49.808;9.968;2022-10-16T16:26:36;99070.06;;;21.75;71.45
46506;BME280;32220;49.808;9.968;2022-10-16T16:29:06;99069.34;;;21.73;71.62
46506;BME280;32220;49.808;9.968;2022-10-16T16:31:34;99076.91;;;21.69;71.05
46506;BME280;32220;49.808;9.968;2022-10-16T16:34:02;99072.81;;;21.57;70.99
46506;BME280;32220;49.808;9.968;2022-10-16T16:36:29;99066.38;;;21.50;70.87
46506;BME280;32220;49.808;9.968;2022-10-16T16:38:59;99084.41;;;21.49;70.39
46506;BME280;32220;49.808;9.968;2022-10-16T16:41:28;99095.03;;;21.51;70.66
46506;BME280;32220;49.808;9.968;2022-10-16T16:44:03;99097.50;;;21.44;71.10
46506;BME280;32220;49.808;9.968;2022-10-16T16:46:32;99097.75;;;21.33;70.89
46506;BME280;32220;49.808;9.968;2022-10-16T16:49:00;99091.09;;;21.20;71.31
46506;BME280;32220;49.808;9.968;2022-10-16T16:51:29;99093.72;;;21.11;71.07
46506;BME280;32220;49.808;9.968;2022-10-16T16:53:57;99097.41;;;21.10;71.25
46506;BME280;32220;49.808;9.968;2022-10-16T16:56:25;99111.31;;;21.06;70.82
46506;BME280;32220;49.808;9.968;2022-10-16T16:58:55;99109.81;;;20.86;71.26
46506;BME280;32220;49.808;9.968;2022-10-16T17:01:26;99133.34;;;20.84;71.26
46506;BME280;32220;49.808;9.968;2022-10-16T17:03:56;99136.41;;;20.71;71.47
46506;BME280;32220;49.808;9.968;2022-10-16T17:06:27;99142.03;;;20.60;71.21
46506;BME280;32220;49.808;9.968;2022-10-16T17:08:56;99151.69;;;20.53;71.63
46506;BME280;32220;49.808;9.968;2022-10-16T17:11:26;99137.63;;;20.31;71.69
46506;BME280;32220;49.808;9.968;2022-10-16T17:13:55;99132.09;;;20.15;72.13
46506;BME280;32220;49.808;9.968;2022-10-16T17:16:27;99153.00;;;20.21;72.20
46506;BME280;32220;49.808;9.968;2022-10-16T17:18:59;99153.34;;;20.08;72.16
46506;BME280;32220;49.808;9.968;2022-10-16T17:21:27;99109.66;;;19.69;71.95
46506;BME280;32220;49.808;9.968;2022-10-16T17:23:55;99144.97;;;19.84;72.23
46506;BME280;32220;49.808;9.968;2022-10-16T17:26:23;99150.38;;;19.75;72.57
46506;BME280;32220;49.808;9.968;2022-10-16T17:28:52;99170.88;;;19.76;73.04
46506;BME280;32220;49.808;9.968;2022-10-16T17:31:22;99173.44;;;19.67;73.32
46506;BME280;32220;49.808;9.968;2022-10-16T17:33:52;99156.25;;;19.51;73.40
46506;BME280;32220;49.808;9.968;2022-10-16T17:36:20;99163.13;;;19.44;73.42
46506;BME280;32220;49.808;9.968;2022-10-16T17:38:49;99171.06;;;19.45;73.96
46506;BME280;32220;49.808;9.968;2022-10-16T17:41:19;99167.13;;;19.40;73.67
46506;BME280;32220;49.808;9.968;2022-10-16T17:43:47;99115.69;;;19.06;75.40
46506;BME280;32220;49.808;9.968;2022-10-16T17:46:18;99162.06;;;19.27;75.08
46506;BME280;32220;49.808;9.968;2022-10-16T17:48:47;99173.22;;;19.22;75.24
46506;BME280;32220;49.808;9.968;2022-10-16T17:51:18;99158.66;;;19.06;75.11
46506;BME280;32220;49.808;9.968;2022-10-16T17:53:48;99172.66;;;19.09;74.66
46506;BME280;32220;49.808;9.968;2022-10-16T17:56:16;99167.69;;;19.05;75.07
46506;BME280;32220;49.808;9.968;2022-10-16T17:58:47;99121.91;;;18.67;75.63
46506;BME280;32220;49.808;9.968;2022-10-16T18:01:17;99166.84;;;18.94;75.50
46506;BME280;32220;49.808;9.968;2022-10-16T18:03:48;99158.53;;;18.78;75.57
46506;BME280;32220;49.808;9.968;2022-10-16T18:06:18;99182.97;;;18.85;75.56
46506;BME280;32220;49.808;9.968;2022-10-16T18:08:45;99176.59;;;18.76;74.97
46506;BME280;32220;49.808;9.968;2022-10-16T18:11:13;99162.59;;;18.63;76.11
46506;BME280;32220;49.808;9.968;2022-10-16T18:13:41;99171.91;;;18.59;76.50
46506;BME280;32220;49.808;9.968;2022-10-16T18:16:11;99184.34;;;18.60;76.81
46506;BME280;32220;49.808;9.968;2022-10-16T18:18:40;99190.06;;;18.55;77.26
46506;BME280;32220;49.808;9.968;2022-10-16T18:21:11;99182.47;;;18.51;77.80
46506;BME280;32220;49.808;9.968;2022-10-16T18:23:43;99190.78;;;18.48;77.22
46506;BME280;32220;49.808;9.968;2022-10-16T18:26:12;99167.28;;;18.30;78.03
46506;BME280;32220;49.808;9.968;2022-10-16T18:28:40;99189.63;;;18.41;78.67
46506;BME280;32220;49.808;9.968;2022-10-16T18:31:11;99195.53;;;18.35;79.93
46506;BME280;32220;49.808;9.968;2022-10-16T18:33:40;99193.84;;;18.34;80.18
46506;BME280;32220;49.808;9.968;2022-10-16T18:36:13;99203.16;;;18.29;80.02
46506;BME280;32220;49.808;9.968;2022-10-16T18:38:43;99203.44;;;18.26;79.35
46506;BME280;32220;49.808;9.968;2022-10-16T18:41:10;99203.69;;;18.23;79.01
46506;BME280;32220;49.808;9.968;2022-10-16T18:43:39;99194.75;;;18.13;79.02
46506;BME280;32220;49.808;9.968;2022-10-16T18:46:09;99197.44;;;18.13;78.66
46506;BME280;32220;49.808;9.968;2022-10-16T18:48:38;99201.38;;;18.09;78.64
46506;BME280;32220;49.808;9.968;2022-10-16T18:51:09;99204.59;;;18.03;78.36
46506;BME280;32220;49.808;9.968;2022-10-16T18:53:39;99200.47;;;17.99;78.16
46506;BME280;32220;49.808;9.968;2022-10-16T18:56:09;99198.03;;;17.86;77.91
46506;BME280;32220;49.808;9.968;2022-10-16T18:58:38;99209.34;;;17.90;77.96
46506;BME280;32220;49.808;9.968;2022-10-16T19:01:08;99189.47;;;17.72;78.02
46506;BME280;32220;49.808;9.968;2022-10-16T19:03:36;99197.66;;;17.70;77.83
46506;BME280;32220;49.808;9.968;2022-10-16T19:06:06;99217.00;;;17.74;77.70
46506;BME280;32220;49.808;9.968;2022-10-16T19:08:35;99173.06;;;17.44;78.06
46506;BME280;32220;49.808;9.968;2022-10-16T19:11:05;99187.78;;;17.50;77.68
46506;BME280;32220;49.808;9.968;2022-10-16T19:13:34;99218.28;;;17.58;77.93
46506;BME280;32220;49.808;9.968;2022-10-16T19:16:02;99211.75;;;17.51;77.93
46506;BME280;32220;49.808;9.968;2022-10-16T19:18:30;99217.09;;;17.51;78.46
46506;BME280;32220;49.808;9.968;2022-10-16T19:21:04;99216.75;;;17.45;78.92
46506;BME280;32220;49.808;9.968;2022-10-16T19:23:32;99227.47;;;17.45;78.54
46506;BME280;32220;49.808;9.968;2022-10-16T19:26:01;99215.84;;;17.35;78.91
46506;BME280;32220;49.808;9.968;2022-10-16T19:28:29;99226.91;;;17.41;78.39
46506;BME280;32220;49.808;9.968;2022-10-16T19:31:01;99228.84;;;17.39;78.49
46506;BME280;32220;49.808;9.968;2022-10-16T19:33:30;99227.41;;;17.35;78.56
46506;BME280;32220;49.808;9.968;2022-10-16T19:36:06;99232.31;;;17.30;78.79
46506;BME280;32220;49.808;9.968;2022-10-16T19:38:34;99228.78;;;17.30;79.02
46506;BME280;32220;49.808;9.968;2022-10-16T19:41:06;99184.28;;;16.97;79.25
46506;BME280;32220;49.808;9.968;2022-10-16T19:43:34;99231.84;;;17.25;79.53
46506;BME280;32220;49.808;9.968;2022-10-16T19:46:04;99234.66;;;17.23;79.35
46506;BME280;32220;49.808;9.968;2022-10-16T19:48:33;99232.34;;;17.19;79.13
46506;BME280;32220;49.808;9.968;2022-10-16T19:51:01;99241.38;;;17.18;79.22
46506;BME280;32220;49.808;9.968;2022-10-16T19:53:30;99196.00;;;16.84;79.22
46506;BME280;32220;49.808;9.968;2022-10-16T19:55:57;99245.41;;;17.12;79.27
46506;BME280;32220;49.808;9.968;2022-10-16T19:58:26;99250.16;;;17.09;79.13
46506;BME280;32220;49.808;9.968;2022-10-16T20:00:53;99237.06;;;16.95;79.39
46506;BME280;32220;49.808;9.968;2022-10-16T20:03:23;99258.69;;;17.03;79.20
46506;BME280;32220;49.808;9.968;2022-10-16T20:05:51;99258.94;;;17.00;79.27
46506;BME280;32220;49.808;9.968;2022-10-16T20:08:20;99259.19;;;16.97;79.46
46506;BME280;32220;49.808;9.968;2022-10-16T20:10:48;99265.63;;;16.94;79.75
46506;BME280;32220;49.808;9.968;2022-10-16T20:13:17;99263.13;;;16.93;79.69
46506;BME280;32220;49.808;9.968;2022-10-16T20:15:45;99258.25;;;16.86;79.77
46506;BME280;32220;49.808;9.968;2022-10-16T20:18:13;99254.00;;;16.84;79.99
46506;BME280;32220;49.808;9.968;2022-10-16T20:20:45;99237.53;;;16.68;80.05
46506;BME280;32220;49.808;9.968;2022-10-16T20:23:13;99270.03;;;16.84;80.19
46506;BME280;32220;49.808;9.968;2022-10-16T20:25:42;99265.66;;;16.83;80.09
46506;BME280;32220;49.808;9.968;2022-10-16T20:28:11;99274.81;;;16.80;79.81
46506;BME280;32220;49.808;9.968;2022-10-16T20:30:41;99271.41;;;16.78;79.89
46506;BME280;32220;49.808;9.968;2022-10-16T20:33:10;99279.69;;;16.75;79.94
46506;BME280;32220;49.808;9.968;2022-10-16T20:35:40;99271.31;;;16.69;80.27
46506;BME280;32220;49.808;9.968;2022-10-16T20:38:10;99277.25;;;16.72;80.20
46506;BME280;32220;49.808;9.968;2022-10-16T20:40:40;99276.06;;;16.65;80.11
46506;BME280;32220;49.808;9.968;2022-10-16T20:43:10;99285.78;;;16.66;80.19
46506;BME280;32220;49.808;9.968;2022-10-16T20:45:39;99286.03;;;16.63;80.92
46506;BME280;32220;49.808;9.968;2022-10-16T20:48:06;99280.41;;;16.55;80.90
46506;BME280;32220;49.808;9.968;2022-10-16T20:50:36;99264.38;;;16.44;81.12
46506;BME280;32220;49.808;9.968;2022-10-16T20:53:05;99287.72;;;16.53;80.83
46506;BME280;32220;49.808;9.968;2022-10-16T20:55:35;99287.09;;;16.49;80.96
46506;BME280;32220;49.808;9.968;2022-10-16T20:58:04;99286.47;;;16.46;80.72
46506;BME280;32220;49.808;9.968;2022-10-16T21:00:31;99292.09;;;16.43;81.10
46506;BME280;32220;49.808;9.968;2022-10-16T21:02:59;99288.69;;;16.41;80.89
46506;BME280;32220;49.808;9.968;2022-10-16T21:05:27;99292.56;;;16.37;81.10
46506;BME280;32220;49.808;9.968;2022-10-16T21:07:56;99288.44;;;16.33;81.50
46506;BME280;32220;49.808;9.968;2022-10-16T21:10:24;99297.56;;;16.30;81.69
46506;BME280;32220;49.808;9.968;2022-10-16T21:12:54;99296.94;;;16.27;81.39
46506;BME280;32220;49.808;9.968;2022-10-16T21:15:22;99298.16;;;16.23;81.17
46506;BME280;32220;49.808;9.968;2022-10-16T21:17:49;99303.03;;;16.17;81.55
46506;BME280;32220;49.808;9.968;2022-10-16T21:20:18;99302.28;;;16.15;81.44
46506;BME280;32220;49.808;9.968;2022-10-16T21:22:45;99305.19;;;16.12;81.43
46506;BME280;32220;49.808;9.968;2022-10-16T21:25:13;99288.41;;;15.99;81.41
46506;BME280;32220;49.808;9.968;2022-10-16T21:27:41;99311.03;;;16.06;81.35
46506;BME280;32220;49.808;9.968;2022-10-16T21:30:10;99308.59;;;16.03;81.37
46506;BME280;32220;49.808;9.968;2022-10-16T21:32:38;99310.63;;;16.00;81.44
46506;BME280;32220;49.808;9.968;2022-10-16T21:35:07;99315.25;;;15.98;81.50
46506;BME280;32220;49.808;9.968;2022-10-16T21:37:34;99305.63;;;15.84;81.56
46506;BME280;32220;49.808;9.968;2022-10-16T21:40:02;99318.28;;;15.93;81.45
46506;BME280;32220;49.808;9.968;2022-10-16T21:42:30;99328.22;;;15.91;81.40
46506;BME280;32220;49.808;9.968;2022-10-16T21:44:58;99327.59;;;15.88;81.58
46506;BME280;32220;49.808;9.968;2022-10-16T21:47:27;99329.53;;;15.86;81.62
46506;BME280;32220;49.808;9.968;2022-10-16T21:49:54;99330.63;;;15.83;81.36
46506;BME280;32220;49.808;9.968;2022-10-16T21:52:22;99324.28;;;15.73;81.47
46506;BME280;32220;49.808;9.968;2022-10-16T21:54:50;99326.22;;;15.71;81.61
46506;BME280;32220;49.808;9.968;2022-10-16T21:57:17;99335.69;;;15.75;81.41
46506;BME280;32220;49.808;9.968;2022-10-16T21:59:45;99339.56;;;15.71;81.25
46506;BME280;32220;49.808;9.968;2022-10-16T22:02:13;99336.63;;;15.63;81.62
46506;BME280;32220;49.808;9.968;2022-10-16T22:04:42;99347.19;;;15.64;81.17
46506;BME280;32220;49.808;9.968;2022-10-16T22:07:10;99325.13;;;15.50;81.71
46506;BME280;32220;49.808;9.968;2022-10-16T22:09:37;99350.47;;;15.57;81.70
46506;BME280;32220;49.808;9.968;2022-10-16T22:12:05;99352.38;;;15.55;81.72